createdAt,value
2022-09-10T00:02:19.555Z,16.29
2022-09-10T00:07:23.177Z,18.11
2022-09-10T00:12:26.184Z,18.69
2022-09-10T00:17:29.291Z,18.31
2022-09-10T00:22:33.374Z,19.00
2022-09-10T00:27:36.537Z,17.73
2022-09-10T00:32:39.805Z,18.19
2022-09-10T00:37:42.648Z,18.75
2022-09-10T00:42:45.552Z,17.14
2022-09-10T00:47:50.488Z,16.02
2022-09-10T00:52:57.404Z,15.59
2022-09-10T00:58:02.132Z,15.71
2022-09-10T01:03:08.086Z,15.93
2022-09-10T01:08:16.454Z,15.60
2022-09-10T01:13:25.706Z,15.51
2022-09-10T01:18:46.226Z,15.79
2022-09-10T01:24:19.668Z,15.44
2022-09-10T01:29:31.254Z,15.57
2022-09-10T01:34:55.765Z,15.42
2022-09-10T01:40:02.015Z,15.88
2022-09-10T01:45:06.687Z,15.74
2022-09-10T01:50:21.688Z,15.53
2022-09-10T01:55:42.095Z,15.66
2022-09-10T02:00:53.832Z,15.75
2022-09-10T02:05:58.089Z,15.90
2022-09-10T02:11:06.396Z,15.61
2022-09-10T02:16:13.178Z,15.80
2022-09-10T02:21:16.503Z,15.96
2022-09-10T02:26:19.953Z,15.67
2022-09-10T02:31:23.949Z,15.94
2022-09-10T02:36:26.933Z,16.06
2022-09-10T02:41:34.139Z,16.11
2022-09-10T02:46:36.939Z,16.23
2022-09-10T02:51:41.996Z,16.01
2022-09-10T02:56:44.894Z,15.98
2022-09-10T03:01:48.601Z,16.66
2022-09-10T03:06:52.255Z,16.72
2022-09-10T03:11:55.453Z,16.15
2022-09-10T03:16:58.455Z,15.83
2022-09-10T03:22:01.571Z,16.10
2022-09-10T03:27:04.476Z,16.64
2022-09-10T03:32:07.482Z,16.28
2022-09-10T03:37:10.586Z,16.55
2022-09-10T03:42:14.271Z,16.58
2022-09-10T03:47:17.211Z,16.28
2022-09-10T03:52:22.894Z,16.50
2022-09-10T03:57:26.504Z,16.47
2022-09-10T04:02:29.437Z,16.26
2022-09-10T04:07:32.308Z,15.92
2022-09-10T04:12:36.440Z,15.93
2022-09-10T04:17:39.194Z,16.09
2022-09-10T04:22:42.046Z,15.97
2022-09-10T04:27:46.382Z,16.26
2022-09-10T04:32:49.881Z,16.12
2022-09-10T04:37:52.803Z,15.72
2022-09-10T04:42:56.294Z,16.09
2022-09-10T04:48:01.683Z,16.63
2022-09-10T04:53:08.173Z,16.66
2022-09-10T04:58:11.589Z,16.28
2022-09-10T05:03:15.827Z,16.50
2022-09-10T05:08:19.236Z,16.96
2022-09-10T05:13:25.531Z,16.40
2022-09-10T05:18:28.629Z,16.49
2022-09-10T05:23:32.356Z,16.02
2022-09-10T05:28:35.302Z,15.73
2022-09-10T05:33:42.184Z,16.00
2022-09-10T05:38:47.934Z,16.20
2022-09-10T05:43:50.932Z,16.10
2022-09-10T05:48:54.454Z,16.54
2022-09-10T05:54:00.979Z,16.91
2022-09-10T05:59:07.529Z,16.90
2022-09-10T06:04:11.456Z,16.91
2022-09-10T06:09:14.566Z,16.52
2022-09-10T06:14:17.467Z,16.50
2022-09-10T06:19:21.602Z,16.73
2022-09-10T06:24:26.039Z,16.62
2022-09-10T06:29:29.661Z,16.79
2022-09-10T06:34:32.566Z,16.91
2022-09-10T06:39:38.352Z,16.74
2022-09-10T06:44:41.342Z,16.49
2022-09-10T06:49:44.255Z,16.70
2022-09-10T06:54:48.385Z,16.68
2022-09-10T06:59:51.182Z,16.67
2022-09-10T07:04:54.090Z,17.08
2022-09-10T07:09:56.888Z,16.81
2022-09-10T07:14:59.792Z,17.20
2022-09-10T07:20:03.404Z,17.22
2022-09-10T07:25:07.422Z,17.35
2022-09-10T07:30:11.822Z,17.94
2022-09-10T07:35:15.002Z,17.78
2022-09-10T07:40:17.894Z,18.14
2022-09-10T07:45:22.462Z,18.13
2022-09-10T07:50:32.718Z,17.72
2022-09-10T07:55:35.925Z,17.85
2022-09-10T08:00:42.624Z,17.34
2022-09-10T08:05:47.170Z,17.17
2022-09-10T08:10:49.961Z,17.18
2022-09-10T08:15:52.800Z,17.92
2022-09-10T08:20:55.875Z,17.80
2022-09-10T08:25:59.007Z,17.70
2022-09-10T08:31:10.115Z,17.48
2022-09-10T08:36:15.137Z,17.31
2022-09-10T08:41:31.448Z,17.39
2022-09-10T08:46:42.005Z,17.65
2022-09-10T08:52:20.776Z,18.11
2022-09-10T08:57:32.592Z,18.64
2022-09-10T09:02:49.701Z,19.14
2022-09-10T09:07:54.680Z,19.48
2022-09-10T09:13:00.348Z,18.74
2022-09-10T09:18:40.135Z,19.04
2022-09-10T09:24:12.540Z,19.18
2022-09-10T09:29:56.721Z,18.66
2022-09-10T09:35:28.976Z,18.58
2022-09-10T09:40:45.705Z,18.99
2022-09-10T09:45:49.578Z,18.32
2022-09-10T09:50:55.900Z,17.57
2022-09-10T09:56:01.495Z,17.02
2022-09-10T10:01:04.457Z,16.78
2022-09-10T10:06:10.657Z,16.90
2022-09-10T10:11:20.315Z,17.48
2022-09-10T10:16:35.843Z,17.86
2022-09-10T10:21:44.269Z,17.88
2022-09-10T10:26:48.911Z,17.75
2022-09-10T10:31:53.756Z,17.55
2022-09-10T10:37:18.680Z,17.29
2022-09-10T10:42:29.781Z,17.07
2022-09-10T10:47:43.642Z,17.22
2022-09-10T10:52:55.865Z,17.26
2022-09-10T10:58:24.777Z,17.16
2022-09-10T11:03:46.420Z,17.13
2022-09-10T11:08:58.164Z,17.47
2022-09-10T11:14:10.043Z,17.50
2022-09-10T11:19:20.115Z,17.53
2022-09-10T11:24:44.838Z,17.86
2022-09-10T11:30:10.571Z,17.50
2022-09-10T11:35:19.310Z,17.31
2022-09-10T11:40:31.950Z,17.53
2022-09-10T11:45:49.288Z,17.55
2022-09-10T11:51:02.225Z,17.58
2022-09-10T11:56:05.988Z,17.66
2022-09-10T12:01:33.945Z,17.56
2022-09-10T12:06:41.461Z,17.41
2022-09-10T12:11:56.440Z,17.33
2022-09-10T12:17:09.482Z,17.12
2022-09-10T12:22:29.692Z,17.18
2022-09-10T12:27:44.478Z,17.48
2022-09-10T12:32:48.721Z,17.53
2022-09-10T12:38:30.021Z,17.39
2022-09-10T12:43:41.925Z,17.60
2022-09-10T12:49:05.622Z,17.78
2022-09-10T12:54:30.336Z,17.78
2022-09-10T13:00:04.696Z,17.72
2022-09-10T13:05:38.816Z,17.75
2022-09-10T13:10:59.954Z,17.68
2022-09-10T13:16:04.516Z,17.74
2022-09-10T13:21:30.535Z,17.57
2022-09-10T13:26:48.631Z,17.47
2022-09-10T13:32:20.683Z,17.50
2022-09-10T13:37:51.508Z,17.51
2022-09-10T13:43:23.017Z,17.59
2022-09-10T13:48:30.956Z,17.63
2022-09-10T13:53:36.216Z,17.76
2022-09-10T13:58:48.583Z,17.68
2022-09-10T14:03:52.152Z,17.62
2022-09-10T14:08:58.741Z,17.35
2022-09-10T14:14:07.782Z,17.30
2022-09-10T14:19:23.385Z,17.12
2022-09-10T14:24:31.460Z,17.03
2022-09-10T14:29:34.416Z,16.97
2022-09-10T14:34:37.422Z,17.10
2022-09-10T14:39:44.705Z,17.12
2022-09-10T14:44:48.042Z,17.00
2022-09-10T14:49:52.382Z,17.06
2022-09-10T14:54:56.309Z,17.04
2022-09-10T15:00:00.232Z,16.74
2022-09-10T15:05:03.322Z,16.96
2022-09-10T15:10:07.483Z,16.99
2022-09-10T15:15:17.230Z,16.98
2022-09-10T15:20:25.823Z,17.12
2022-09-10T15:25:38.585Z,17.16
2022-09-10T15:30:41.934Z,17.18
2022-09-10T15:35:44.875Z,17.19
2022-09-10T15:40:52.812Z,17.16
2022-09-10T15:45:57.223Z,17.18
2022-09-10T15:51:05.287Z,17.22
2022-09-10T15:56:10.890Z,17.22
2022-09-10T16:01:15.346Z,17.25
2022-09-10T16:06:19.611Z,17.19
2022-09-10T16:11:23.187Z,17.09
2022-09-10T16:16:27.347Z,17.01
2022-09-10T16:21:32.782Z,16.91
2022-09-10T16:26:39.245Z,16.82
2022-09-10T16:31:43.722Z,16.77
2022-09-10T16:36:49.053Z,16.69
2022-09-10T16:41:52.389Z,16.79
2022-09-10T16:46:57.766Z,17.18
2022-09-10T16:52:00.651Z,17.13
2022-09-10T16:57:04.171Z,16.85
2022-09-10T17:02:07.686Z,16.63
2022-09-10T17:07:10.697Z,16.56
2022-09-10T17:12:13.596Z,16.36
2022-09-10T17:17:16.504Z,16.22
2022-09-10T17:22:19.406Z,16.15
2022-09-10T17:27:25.397Z,15.96
2022-09-10T17:32:28.905Z,15.95
2022-09-10T17:37:32.521Z,16.01
2022-09-10T17:42:35.633Z,16.09
2022-09-10T17:47:39.252Z,16.21
2022-09-10T17:52:45.945Z,16.27
2022-09-10T17:57:49.110Z,16.22
2022-09-10T18:02:54.949Z,16.28
2022-09-10T18:07:57.930Z,16.36
2022-09-10T18:13:01.654Z,16.45
2022-09-10T18:18:04.773Z,16.37
2022-09-10T18:23:07.647Z,16.37
2022-09-10T18:28:11.148Z,16.37
2022-09-10T18:33:14.918Z,16.43
2022-09-10T18:38:18.236Z,16.52
2022-09-10T18:43:21.126Z,16.58
2022-09-10T18:48:23.946Z,16.56
2022-09-10T18:53:28.786Z,16.60
2022-09-10T18:58:31.579Z,16.63
2022-09-10T19:03:36.952Z,16.69
2022-09-10T19:08:45.888Z,16.74
2022-09-10T19:13:53.704Z,16.82
2022-09-10T19:18:58.864Z,16.86
2022-09-10T19:24:02.413Z,16.97
2022-09-10T19:29:06.624Z,17.01
2022-09-10T19:34:12.318Z,17.12
2022-09-10T19:39:17.262Z,16.87
2022-09-10T19:44:20.348Z,16.61
2022-09-10T19:49:23.377Z,16.30
2022-09-10T19:54:28.407Z,16.28
2022-09-10T19:59:31.621Z,16.12
2022-09-10T20:04:35.597Z,16.08
2022-09-10T20:09:40.060Z,16.12
2022-09-10T20:14:43.197Z,16.16
2022-09-10T20:19:46.000Z,16.22
2022-09-10T20:24:48.910Z,16.31
2022-09-10T20:29:51.757Z,16.28
2022-09-10T20:34:56.454Z,16.40
2022-09-10T20:39:59.384Z,16.43
2022-09-10T20:45:02.665Z,16.50
2022-09-10T20:50:06.574Z,16.47
2022-09-10T20:55:12.570Z,16.36
2022-09-10T21:00:15.902Z,16.37
2022-09-10T21:05:20.426Z,16.39
2022-09-10T21:10:23.437Z,16.28
2022-09-10T21:15:26.952Z,16.29
2022-09-10T21:20:29.750Z,16.35
2022-09-10T21:25:33.988Z,16.38
2022-09-10T21:30:37.303Z,16.38
2022-09-10T21:35:41.280Z,16.35
2022-09-10T21:40:44.544Z,16.25
2022-09-10T21:45:48.367Z,16.22
2022-09-10T21:51:04.793Z,16.27
2022-09-10T21:56:10.055Z,16.23
2022-09-10T22:01:19.041Z,16.10
2022-09-10T22:06:30.878Z,15.97
2022-09-10T22:11:40.865Z,15.96
2022-09-10T22:16:45.579Z,16.02
2022-09-10T22:21:48.633Z,16.01
2022-09-10T22:26:52.048Z,16.04
2022-09-10T22:31:55.667Z,15.88
2022-09-10T22:36:58.467Z,15.85
2022-09-10T22:42:01.275Z,15.83
2022-09-10T22:47:04.280Z,15.59
2022-09-10T22:52:07.079Z,15.43
2022-09-10T22:57:09.983Z,15.48
2022-09-10T23:02:12.788Z,15.58
2022-09-10T23:07:16.714Z,15.49
2022-09-10T23:12:22.280Z,15.57
2022-09-10T23:17:25.079Z,15.64
2022-09-10T23:22:27.984Z,15.69
2022-09-10T23:27:30.991Z,15.85
2022-09-10T23:32:33.810Z,15.74
2022-09-10T23:37:36.698Z,15.35
2022-09-10T23:42:39.599Z,15.35
2022-09-10T23:47:42.369Z,15.31
2022-09-10T23:52:45.201Z,15.33
2022-09-10T23:57:48.415Z,15.12
